Time;durP1;ratioP1;P1;durP2;ratioP2;P2;SDS_P1;SDS_P2;PMS_P1;PMS_P2;Temp;Humidity;BMP_temperature;BMP_pressure;BME280_temperature;BME280_humidity;BME280_pressure;Samples;Min_cycle;Max_cycle;Signal;HPM_P1;HPM_P2
2022/11/05 00:10:29;;;;;;;31.45;24.55;;;10.20;99.90;;;;;;6221257;23;20188;-83
2022/11/05 00:18:31;;;;;;;33.85;25.00;;;10.20;99.90;;;;;;6201375;23;20275;-83
2022/11/05 00:21:00;;;;;;;35.58;26.23;;;10.20;99.90;;;;;;6233071;23;20181;-89
2022/11/05 00:26:15;;;;;;;32.53;25.77;;;10.10;99.90;;;;;;6238940;23;20222;-83
2022/11/05 00:28:43;;;;;;;43.08;23.08;;;10.20;99.90;;;;;;6200036;23;20234;-86
2022/11/05 00:31:12;;;;;;;34.70;22.30;;;10.20;99.90;;;;;;6224430;23;20230;-89
2022/11/05 00:33:42;;;;;;;30.92;22.20;;;10.20;99.90;;;;;;6223797;23;20645;-86
2022/11/05 00:36:12;;;;;;;29.70;20.27;;;10.10;99.90;;;;;;6221467;23;20185;-85
2022/11/05 00:38:39;;;;;;;27.27;19.20;;;10.20;99.90;;;;;;6220956;23;20236;-87
2022/11/05 00:41:10;;;;;;;28.52;21.88;;;10.10;99.90;;;;;;6193667;23;20207;-87
2022/11/05 00:46:26;;;;;;;26.98;19.75;;;10.10;99.90;;;;;;6220850;23;20181;-86
2022/11/05 00:51:39;;;;;;;26.98;19.27;;;10.20;99.90;;;;;;6224449;23;20180;-84
2022/11/05 00:54:07;;;;;;;23.42;17.73;;;10.10;99.90;;;;;;6224796;23;20200;-84
2022/11/05 00:56:36;;;;;;;20.33;14.43;;;10.10;99.90;;;;;;6200287;23;20538;-83
2022/11/05 00:59:04;;;;;;;14.07;12.60;;;10.10;99.90;;;;;;6173924;23;20313;-82
2022/11/05 01:01:31;;;;;;;8.63;7.57;;;10.20;99.90;;;;;;6223131;23;20231;-83
2022/11/05 01:03:59;;;;;;;6.82;6.20;;;10.10;99.90;;;;;;6172808;23;20172;-85
2022/11/05 01:06:27;;;;;;;6.45;5.25;;;9.90;99.90;;;;;;6222915;23;20180;-87
2022/11/05 01:08:55;;;;;;;5.40;4.93;;;10.00;99.90;;;;;;6196984;23;20819;-87
2022/11/05 01:11:35;;;;;;;8.40;6.40;;;9.80;99.90;;;;;;6222802;23;20168;-84
2022/11/05 01:14:12;;;;;;;4.95;4.55;;;9.80;99.90;;;;;;6223130;23;20188;-86
2022/11/05 01:16:39;;;;;;;6.13;5.50;;;9.50;99.90;;;;;;6196108;23;20626;-84
2022/11/05 01:19:09;;;;;;;6.68;5.97;;;9.50;99.90;;;;;;6222909;23;20349;-81
2022/11/05 01:21:39;;;;;;;6.63;5.88;;;9.50;99.90;;;;;;6197761;23;20172;-84
2022/11/05 01:24:09;;;;;;;5.25;4.75;;;9.40;99.90;;;;;;6223214;23;20226;-86
2022/11/05 01:26:36;;;;;;;6.45;5.68;;;9.40;99.90;;;;;;6223183;23;20227;-85
2022/11/05 01:29:03;;;;;;;5.68;5.13;;;9.30;99.90;;;;;;6222181;23;20184;-86
2022/11/05 01:31:30;;;;;;;5.80;5.20;;;9.30;99.90;;;;;;6222149;23;20182;-86
2022/11/05 01:34:00;;;;;;;6.35;5.72;;;9.20;99.90;;;;;;6196744;23;20519;-87
2022/11/05 01:36:30;;;;;;;5.35;4.85;;;9.30;99.90;;;;;;6222719;23;20223;-82
2022/11/05 01:38:57;;;;;;;5.93;5.32;;;9.30;99.90;;;;;;6196149;23;20184;-85
2022/11/05 01:41:24;;;;;;;6.68;5.97;;;9.30;99.90;;;;;;6195997;23;20226;-83
2022/11/05 01:43:55;;;;;;;8.45;6.28;;;9.30;99.90;;;;;;6222394;23;20215;-85
2022/11/05 01:46:25;;;;;;;8.35;7.32;;;9.20;99.90;;;;;;6222612;23;20650;-84
2022/11/05 01:48:56;;;;;;;7.95;6.60;;;9.10;99.90;;;;;;6196082;23;20207;-86
2022/11/05 01:51:29;;;;;;;7.25;6.05;;;9.30;99.90;;;;;;6221052;23;20169;-86
2022/11/05 01:54:05;;;;;;;7.43;6.72;;;9.30;99.90;;;;;;6222054;23;20264;-88
2022/11/05 01:56:39;;;;;;;8.48;7.18;;;9.20;99.90;;;;;;6172423;23;20230;-82
2022/11/05 01:59:17;;;;;;;8.50;7.70;;;9.20;99.90;;;;;;6200035;23;20187;-83
2022/11/05 02:01:45;;;;;;;7.35;6.53;;;9.10;99.90;;;;;;6206845;23;20230;-84
2022/11/05 02:04:21;;;;;;;8.57;7.35;;;9.10;99.90;;;;;;6232897;23;20176;-86
2022/11/05 02:06:52;;;;;;;7.75;6.95;;;9.10;99.90;;;;;;6211734;23;20218;-84
2022/11/05 02:09:38;;;;;;;7.75;6.95;;;9.10;99.90;;;;;;6212849;23;20176;-87
2022/11/05 02:12:07;;;;;;;8.25;6.45;;;9.10;99.90;;;;;;6239267;23;20191;-82
2022/11/05 02:14:35;;;;;;;7.30;6.60;;;9.10;99.90;;;;;;6212783;23;20195;-88
2022/11/05 02:17:28;;;;;;;8.63;7.82;;;9.10;99.90;;;;;;6233439;23;20227;-85
2022/11/05 02:20:22;;;;;;;7.05;5.95;;;9.10;99.90;;;;;;6199412;23;20184;-85
2022/11/05 02:23:15;;;;;;;8.75;7.85;;;9.10;99.90;;;;;;6223711;23;20172;-83
2022/11/05 02:26:17;;;;;;;6.72;6.05;;;9.20;99.90;;;;;;6222492;23;20222;-86
2022/11/05 02:29:23;;;;;;;7.93;6.30;;;9.10;99.90;;;;;;6197097;23;20172;-87
2022/11/05 02:31:56;;;;;;;11.75;7.35;;;9.10;99.90;;;;;;6221460;23;20223;-87
2022/11/05 02:34:50;;;;;;;6.90;6.22;;;9.20;99.90;;;;;;6196698;23;20203;-88
2022/11/05 02:37:39;;;;;;;8.55;7.40;;;9.10;99.90;;;;;;6222000;23;20357;-86
2022/11/05 02:40:30;;;;;;;6.88;5.63;;;9.20;99.90;;;;;;6221697;23;20172;-84
2022/11/05 02:43:23;;;;;;;7.65;6.50;;;9.20;99.90;;;;;;6222199;23;20188;-84
2022/11/05 02:46:10;;;;;;;6.82;5.90;;;9.10;99.90;;;;;;6196656;23;20161;-84
2022/11/05 02:49:02;;;;;;;8.57;6.55;;;9.10;99.90;;;;;;6222428;23;20497;-86
2022/11/05 02:52:14;;;;;;;6.45;5.18;;;9.10;99.90;;;;;;6223978;23;20160;-86
2022/11/05 02:54:44;;;;;;;8.23;5.32;;;9.10;99.90;;;;;;6075925;23;20195;-85
2022/11/05 02:57:11;;;;;;;5.95;5.28;;;9.10;99.90;;;;;;6206134;23;20184;-84
2022/11/05 02:59:40;;;;;;;6.60;5.45;;;9.10;99.90;;;;;;6224240;23;20177;-82
2022/11/05 03:02:07;;;;;;;5.80;4.22;;;9.10;99.90;;;;;;6223271;23;20215;-84
2022/11/05 03:04:34;;;;;;;6.93;4.55;;;9.20;99.90;;;;;;6196329;23;20191;-83
2022/11/05 03:07:34;;;;;;;6.88;6.18;;;9.10;99.90;;;;;;6222940;23;20176;-84
2022/11/05 03:10:13;;;;;;;4.50;4.05;;;9.10;99.90;;;;;;6229871;23;20211;-85
2022/11/05 03:12:43;;;;;;;4.15;3.75;;;9.10;99.90;;;;;;6242447;23;20152;-82
2022/11/05 03:15:41;;;;;;;3.95;3.55;;;9.00;99.90;;;;;;6242333;23;20192;-86
2022/11/05 03:18:27;;;;;;;4.10;3.70;;;9.00;99.90;;;;;;6240672;23;20172;-86
2022/11/05 03:21:11;;;;;;;5.05;4.20;;;9.00;99.90;;;;;;6237962;23;20168;-84
2022/11/05 03:23:49;;;;;;;6.20;3.83;;;9.00;99.90;;;;;;6239509;23;20165;-88
2022/11/05 03:26:30;;;;;;;4.63;4.05;;;9.00;99.90;;;;;;6225173;23;20167;-84
2022/11/05 03:29:25;;;;;;;3.53;3.22;;;9.00;99.90;;;;;;6196338;23;20226;-86
2022/11/05 03:31:56;;;;;;;3.40;3.03;;;9.00;99.90;;;;;;6195410;23;20188;-85
2022/11/05 03:34:35;;;;;;;3.65;3.00;;;9.00;99.90;;;;;;6221993;23;20188;-84
2022/11/05 03:37:05;;;;;;;3.25;2.97;;;9.00;99.90;;;;;;6195737;23;20174;-89
2022/11/05 03:39:39;;;;;;;3.08;2.80;;;8.90;99.90;;;;;;6223838;23;20214;-85
2022/11/05 03:42:11;;;;;;;6.30;3.35;;;9.00;99.90;;;;;;6226999;23;20237;-86
2022/11/05 03:44:51;;;;;;;3.53;3.22;;;9.00;99.90;;;;;;6204223;23;20194;-84
2022/11/05 03:47:25;;;;;;;3.88;3.58;;;8.90;99.90;;;;;;6229470;23;20168;-87
2022/11/05 03:50:22;;;;;;;3.70;3.40;;;9.00;99.90;;;;;;6225120;23;20176;-85
2022/11/05 03:52:58;;;;;;;4.00;3.70;;;8.90;99.90;;;;;;6232148;23;20252;-87
2022/11/05 03:55:32;;;;;;;4.25;3.95;;;8.90;99.90;;;;;;6195922;23;20187;-84
2022/11/05 03:58:03;;;;;;;3.50;3.20;;;8.90;99.90;;;;;;6181985;23;20242;-87
2022/11/05 04:00:30;;;;;;;6.63;5.25;;;8.80;99.90;;;;;;6209225;23;20181;-85
2022/11/05 04:02:57;;;;;;;6.63;5.03;;;8.90;99.90;;;;;;6223338;23;20175;-84
2022/11/05 04:05:25;;;;;;;5.70;4.30;;;9.00;99.90;;;;;;6197142;23;20199;-85
2022/11/05 04:13:30;;;;;;;4.75;3.60;;;8.90;99.90;;;;;;6240899;23;20149;-82
2022/11/05 04:17:05;;;;;;;5.97;4.40;;;9.10;99.90;;;;;;6230732;23;20160;-84
2022/11/05 04:19:05;;;;;;;4.40;3.92;;;9.00;99.90;;;;;;6223106;23;20391;-84
2022/11/05 04:24:20;;;;;;;4.90;4.00;;;8.90;99.90;;;;;;6223290;23;20665;-87
2022/11/05 04:26:48;;;;;;;4.32;3.60;;;9.00;99.90;;;;;;6223105;23;20196;-86
2022/11/05 04:32:03;;;;;;;5.35;4.13;;;9.00;99.90;;;;;;6226651;23;20165;-87
2022/11/05 04:34:40;;;;;;;5.13;4.50;;;9.00;99.90;;;;;;6225824;23;20630;-83
2022/11/05 04:37:08;;;;;;;3.80;3.50;;;9.00;99.90;;;;;;6224344;23;20173;-84
2022/11/05 04:39:37;;;;;;;4.35;3.92;;;9.00;99.90;;;;;;6224174;23;20367;-85
2022/11/05 04:42:06;;;;;;;3.90;3.50;;;9.10;99.90;;;;;;6222944;23;20395;-84
2022/11/05 04:44:36;;;;;;;5.18;3.88;;;9.00;99.90;;;;;;6221434;23;20227;-85
2022/11/05 04:47:10;;;;;;;5.10;3.90;;;9.00;99.90;;;;;;6223043;23;20176;-88
2022/11/05 04:49:36;;;;;;;5.68;4.82;;;8.90;99.90;;;;;;6196920;23;20199;-86
2022/11/05 04:52:04;;;;;;;6.60;4.05;;;8.90;99.90;;;;;;6197662;23;20227;-85
2022/11/05 04:54:31;;;;;;;7.57;4.07;;;8.90;99.90;;;;;;6196957;23;20243;-86
2022/11/05 04:57:01;;;;;;;3.90;3.53;;;9.00;99.90;;;;;;6223813;23;20235;-86
2022/11/05 04:59:30;;;;;;;5.28;4.35;;;8.90;99.90;;;;;;6196634;23;20228;-83
2022/11/05 05:01:58;;;;;;;3.38;2.95;;;8.90;99.90;;;;;;6222312;23;20188;-85
2022/11/05 05:04:27;;;;;;;5.05;3.90;;;8.90;99.90;;;;;;6196624;23;20184;-84
2022/11/05 05:06:54;;;;;;;4.00;3.50;;;8.90;99.90;;;;;;6221831;23;20188;-84
2022/11/05 05:09:22;;;;;;;4.95;4.45;;;8.90;99.90;;;;;;6222603;23;20584;-86
2022/11/05 05:11:49;;;;;;;5.68;5.18;;;8.90;99.90;;;;;;6222591;23;20184;-86
2022/11/05 05:14:17;;;;;;;6.00;4.75;;;8.90;99.90;;;;;;6222547;23;20208;-87
2022/11/05 05:16:45;;;;;;;5.72;4.65;;;8.90;99.90;;;;;;6222507;23;20188;-85
2022/11/05 05:19:12;;;;;;;9.23;4.10;;;9.00;99.90;;;;;;6222739;23;20234;-83
2022/11/05 05:21:40;;;;;;;6.60;5.43;;;8.90;99.90;;;;;;6196248;23;20376;-84
2022/11/05 05:24:17;;;;;;;7.15;6.03;;;8.90;99.90;;;;;;6221944;23;20376;-85
2022/11/05 05:26:49;;;;;;;6.80;5.95;;;8.90;99.90;;;;;;6221823;23;20175;-86
2022/11/05 05:29:21;;;;;;;8.70;5.70;;;9.00;99.90;;;;;;6196169;23;20215;-87
2022/11/05 05:31:48;;;;;;;8.85;7.43;;;8.90;99.90;;;;;;6196342;23;20184;-88
2022/11/05 05:34:17;;;;;;;7.13;6.00;;;9.00;99.90;;;;;;6221436;23;20204;-85
2022/11/05 05:36:46;;;;;;;7.68;6.07;;;9.00;99.90;;;;;;6195542;23;20172;-84
2022/11/05 05:39:14;;;;;;;8.65;5.75;;;9.00;99.90;;;;;;6221924;23;20448;-86
2022/11/05 05:41:42;;;;;;;7.18;5.65;;;9.00;99.90;;;;;;6194425;23;20180;-84
2022/11/05 05:44:09;;;;;;;6.82;5.28;;;9.00;99.90;;;;;;6221914;23;20180;-84
2022/11/05 05:46:37;;;;;;;6.70;5.07;;;8.80;99.90;;;;;;6222160;23;20207;-85
2022/11/05 05:49:04;;;;;;;7.10;5.97;;;9.00;99.90;;;;;;6169894;23;20188;-84
2022/11/05 05:51:38;;;;;;;5.70;5.10;;;8.90;99.90;;;;;;6197045;23;20396;-84
2022/11/05 05:54:06;;;;;;;6.63;5.00;;;8.90;99.90;;;;;;6221422;23;20204;-85
2022/11/05 05:56:36;;;;;;;7.22;4.60;;;8.90;99.90;;;;;;6196140;23;20191;-84
2022/11/05 05:59:06;;;;;;;5.40;4.90;;;8.90;99.90;;;;;;6195666;23;20503;-87
2022/11/05 06:01:41;;;;;;;5.97;4.80;;;9.00;99.90;;;;;;6198919;23;20172;-86
2022/11/05 06:04:09;;;;;;;7.60;4.90;;;9.00;99.90;;;;;;6223204;23;20180;-84
2022/11/05 06:06:36;;;;;;;7.13;5.47;;;9.00;99.90;;;;;;6196220;23;20404;-84
2022/11/05 06:09:05;;;;;;;6.75;5.55;;;9.00;99.90;;;;;;6221598;23;20180;-85
2022/11/05 06:11:33;;;;;;;5.88;4.78;;;8.90;99.90;;;;;;6221559;23;20169;-85
2022/11/05 06:14:03;;;;;;;7.03;5.30;;;9.00;99.90;;;;;;6222171;23;20337;-87
2022/11/05 06:16:34;;;;;;;5.25;4.55;;;9.00;99.90;;;;;;6195788;23;20223;-85
2022/11/05 06:19:02;;;;;;;7.45;6.57;;;8.90;99.90;;;;;;6221854;23;20192;-85
2022/11/05 06:21:30;;;;;;;6.93;6.18;;;9.00;99.90;;;;;;6222233;23;20214;-86
2022/11/05 06:23:59;;;;;;;8.13;6.07;;;9.00;99.90;;;;;;6192560;23;20183;-89
2022/11/05 06:26:28;;;;;;;10.52;5.88;;;9.20;99.90;;;;;;6221787;23;20643;-84
2022/11/05 06:28:55;;;;;;;7.70;5.80;;;9.20;99.90;;;;;;6194853;23;20176;-85
2022/11/05 06:31:23;;;;;;;8.25;6.57;;;9.10;99.90;;;;;;6194952;23;20182;-86
2022/11/05 06:33:52;;;;;;;7.30;6.25;;;9.10;99.90;;;;;;6220755;23;20189;-86
2022/11/05 06:36:19;;;;;;;5.60;5.00;;;9.20;99.90;;;;;;6221858;23;20175;-84
2022/11/05 06:38:46;;;;;;;6.82;6.00;;;9.20;99.90;;;;;;6221041;23;20186;-84
2022/11/05 06:41:16;;;;;;;7.50;6.03;;;9.10;99.90;;;;;;6223517;23;20235;-85
2022/11/05 06:43:43;;;;;;;7.80;5.85;;;9.10;99.90;;;;;;6198517;23;20192;-83
2022/11/05 06:46:11;;;;;;;8.80;7.63;;;9.20;99.90;;;;;;6222638;23;20180;-86
2022/11/05 06:48:38;;;;;;;7.10;6.40;;;9.10;99.90;;;;;;6196227;23;20243;-82
2022/11/05 06:51:07;;;;;;;7.45;6.65;;;9.20;99.90;;;;;;6195572;23;20183;-86
2022/11/05 06:53:35;;;;;;;7.47;6.35;;;9.10;99.90;;;;;;6222178;23;20204;-84
2022/11/05 06:56:04;;;;;;;7.30;5.85;;;9.10;99.90;;;;;;6221386;23;20527;-86
2022/11/05 06:58:34;;;;;;;6.22;5.63;;;9.20;99.90;;;;;;6221649;23;20161;-87
2022/11/05 07:01:09;;;;;;;6.07;5.32;;;9.20;99.90;;;;;;6170382;23;20185;-84
2022/11/05 07:03:38;;;;;;;7.47;6.07;;;9.10;99.90;;;;;;6220906;23;20172;-85
2022/11/05 07:06:06;;;;;;;5.88;5.20;;;9.10;99.90;;;;;;6220900;23;20364;-87
2022/11/05 07:08:36;;;;;;;6.82;5.57;;;9.10;99.90;;;;;;6220136;23;20461;-86
2022/11/05 07:11:03;;;;;;;7.38;5.95;;;9.20;99.90;;;;;;6220510;23;20310;-87
2022/11/05 07:13:31;;;;;;;7.55;6.03;;;9.30;99.90;;;;;;6221115;23;20187;-85
2022/11/05 07:16:01;;;;;;;6.07;5.47;;;9.40;99.90;;;;;;6195210;23;20250;-85
2022/11/05 07:18:29;;;;;;;7.25;6.22;;;9.30;99.90;;;;;;6220414;23;20259;-86
2022/11/05 07:20:58;;;;;;;7.28;6.43;;;9.30;99.90;;;;;;6221036;23;20590;-87
2022/11/05 07:23:25;;;;;;;6.80;6.10;;;9.20;99.90;;;;;;6221210;23;20176;-83
2022/11/05 07:25:55;;;;;;;6.30;5.70;;;9.30;99.90;;;;;;6195368;23;20184;-86
2022/11/05 07:28:23;;;;;;;7.55;5.78;;;9.20;99.90;;;;;;6230195;23;20203;-88
2022/11/05 07:30:50;;;;;;;10.18;6.30;;;9.20;99.90;;;;;;6200977;23;20188;-87
2022/11/05 07:33:19;;;;;;;6.80;6.03;;;9.20;99.90;;;;;;6221925;23;20242;-85
2022/11/05 07:35:54;;;;;;;7.90;6.63;;;9.20;99.90;;;;;;6221701;23;20192;-86
2022/11/05 07:38:23;;;;;;;7.07;6.20;;;9.30;99.90;;;;;;6197268;23;20172;-88
2022/11/05 07:40:54;;;;;;;8.20;7.07;;;9.30;99.90;;;;;;6222304;23;20287;-84
2022/11/05 07:43:22;;;;;;;8.80;7.35;;;9.40;99.90;;;;;;6196712;23;20232;-85
2022/11/05 07:45:52;;;;;;;9.02;6.50;;;9.40;99.90;;;;;;6196749;23;20176;-87
2022/11/05 07:48:20;;;;;;;6.68;5.97;;;9.50;99.90;;;;;;6223516;23;20413;-86
2022/11/05 07:50:54;;;;;;;7.72;6.93;;;9.60;99.90;;;;;;6223478;23;20170;-88
2022/11/05 07:53:22;;;;;;;6.40;5.43;;;9.80;99.90;;;;;;6198950;23;20188;-87
2022/11/05 07:55:57;;;;;;;8.73;7.30;;;9.80;99.90;;;;;;6206592;23;20184;-85
2022/11/05 07:58:27;;;;;;;7.47;6.22;;;9.90;99.90;;;;;;6240439;23;20182;-84
2022/11/05 08:00:56;;;;;;;6.85;5.50;;;10.00;99.90;;;;;;6242140;23;20207;-86
2022/11/05 08:03:26;;;;;;;5.63;4.70;;;10.00;99.90;;;;;;6242699;23;20224;-88
2022/11/05 08:05:53;;;;;;;4.60;4.18;;;10.00;99.90;;;;;;6241763;23;20172;-89
2022/11/05 08:08:20;;;;;;;4.90;4.50;;;10.10;99.90;;;;;;6215770;23;20240;-84
2022/11/05 08:10:49;;;;;;;6.72;4.40;;;10.20;99.90;;;;;;6230252;23;20222;-85
2022/11/05 08:13:21;;;;;;;4.07;3.60;;;10.20;99.90;;;;;;6230710;23;20203;-86
2022/11/05 08:16:02;;;;;;;5.30;4.30;;;10.40;99.90;;;;;;6206951;23;20188;-88
2022/11/05 08:18:32;;;;;;;4.10;3.50;;;10.50;99.90;;;;;;6204613;23;20192;-85
2022/11/05 08:21:03;;;;;;;3.90;3.45;;;10.40;99.90;;;;;;6202799;23;20183;-87
2022/11/05 08:23:38;;;;;;;11.43;3.90;;;10.40;99.90;;;;;;6200149;23;20191;-86
2022/11/05 08:26:11;;;;;;;4.05;2.70;;;10.40;99.90;;;;;;6200941;23;20164;-86
2022/11/05 08:28:40;;;;;;;4.20;3.80;;;10.60;99.90;;;;;;6199622;23;20455;-88
2022/11/05 08:31:14;;;;;;;7.03;3.47;;;10.70;99.90;;;;;;6195322;23;20173;-85
2022/11/05 08:33:43;;;;;;;4.40;3.88;;;10.80;99.90;;;;;;6197548;23;20184;-86
2022/11/05 08:36:11;;;;;;;3.90;3.55;;;10.80;99.90;;;;;;6224099;23;20204;-86
2022/11/05 08:38:38;;;;;;;4.28;3.40;;;10.80;99.90;;;;;;6198981;23;20184;-84
2022/11/05 08:41:06;;;;;;;6.93;3.92;;;10.70;99.90;;;;;;6223232;23;20498;-88
2022/11/05 08:43:34;;;;;;;4.82;4.10;;;10.90;99.90;;;;;;6225649;23;20209;-85
2022/11/05 08:46:02;;;;;;;4.40;3.58;;;10.90;99.90;;;;;;6175301;23;20184;-88
2022/11/05 08:48:32;;;;;;;3.17;2.60;;;10.80;99.90;;;;;;6226781;23;20181;-86
2022/11/05 08:51:00;;;;;;;3.92;3.15;;;10.80;99.90;;;;;;6199205;23;20252;-87
2022/11/05 08:53:28;;;;;;;6.85;3.00;;;10.90;99.90;;;;;;6203458;23;20177;-84
2022/11/05 08:55:59;;;;;;;3.35;2.95;;;10.90;99.90;;;;;;6209876;23;20210;-88
2022/11/05 08:58:31;;;;;;;2.58;2.38;;;11.00;99.90;;;;;;6213889;23;20153;-84
2022/11/05 09:01:03;;;;;;;4.53;4.15;;;11.00;99.90;;;;;;6212344;23;20242;-87
2022/11/05 09:03:31;;;;;;;3.38;2.90;;;11.10;99.90;;;;;;6235678;23;20200;-87
2022/11/05 09:06:00;;;;;;;4.40;3.25;;;11.10;99.90;;;;;;6202001;23;20181;-86
2022/11/05 09:08:29;;;;;;;3.95;3.33;;;11.20;99.90;;;;;;6226271;23;20188;-87
2022/11/05 09:10:59;;;;;;;5.10;3.20;;;11.30;99.90;;;;;;6200113;23;20278;-86
2022/11/05 09:13:26;;;;;;;2.95;2.65;;;11.30;99.90;;;;;;6226259;23;20729;-86
2022/11/05 09:15:53;;;;;;;3.17;2.88;;;11.50;99.90;;;;;;6176478;23;20231;-87
2022/11/05 09:18:22;;;;;;;3.13;2.70;;;11.50;99.90;;;;;;6202895;23;20191;-85
2022/11/05 09:20:53;;;;;;;4.80;2.63;;;11.50;99.90;;;;;;6202483;23;20457;-85
2022/11/05 09:23:21;;;;;;;2.53;2.30;;;11.40;99.90;;;;;;6176097;23;20171;-89
2022/11/05 09:25:49;;;;;;;4.60;3.40;;;11.50;99.90;;;;;;6173589;23;20360;-87
2022/11/05 09:28:22;;;;;;;3.58;3.17;;;11.60;99.90;;;;;;6224762;23;20172;-85
2022/11/05 09:30:51;;;;;;;4.47;3.38;;;11.60;99.90;;;;;;6225136;23;20491;-86
2022/11/05 09:33:23;;;;;;;3.20;2.80;;;11.60;99.90;;;;;;6222421;23;20192;-86
2022/11/05 09:35:59;;;;;;;2.78;2.45;;;11.60;99.90;;;;;;6224515;23;20372;-84
2022/11/05 09:38:26;;;;;;;3.00;2.17;;;11.70;99.90;;;;;;6221965;23;20192;-85
2022/11/05 09:41:21;;;;;;;4.80;2.05;;;11.70;99.90;;;;;;6221925;23;20242;-85
2022/11/05 09:44:01;;;;;;;3.47;2.00;;;11.60;99.90;;;;;;6224460;23;20203;-88
2022/11/05 09:46:48;;;;;;;2.20;1.95;;;11.50;99.90;;;;;;6199239;23;20260;-86
2022/11/05 09:49:34;;;;;;;5.63;2.22;;;11.60;99.90;;;;;;6198383;23;20224;-87
2022/11/05 09:52:01;;;;;;;2.58;2.38;;;11.60;99.90;;;;;;6225977;23;20180;-85
2022/11/05 09:54:33;;;;;;;3.25;1.85;;;11.70;99.90;;;;;;6226918;23;20172;-91
2022/11/05 09:57:02;;;;;;;4.75;2.60;;;11.70;99.90;;;;;;6175353;23;20212;-89
2022/11/05 09:59:50;;;;;;;5.47;2.45;;;11.60;99.90;;;;;;6226249;23;20180;-86
2022/11/05 10:02:31;;;;;;;3.83;2.85;;;11.50;99.90;;;;;;6225609;23;20216;-84
2022/11/05 10:05:06;;;;;;;4.78;2.33;;;11.50;99.90;;;;;;6225972;23;20192;-84
2022/11/05 10:07:47;;;;;;;4.28;3.13;;;11.70;99.90;;;;;;6177125;23;20164;-85
2022/11/05 10:10:34;;;;;;;2.53;1.90;;;11.80;99.90;;;;;;6225609;23;20243;-85
2022/11/05 10:13:18;;;;;;;3.05;2.10;;;11.90;99.90;;;;;;6224998;23;20207;-86
2022/11/05 10:16:01;;;;;;;1.98;1.75;;;11.90;99.90;;;;;;6224221;23;20196;-87
2022/11/05 10:18:35;;;;;;;4.30;2.15;;;12.00;99.90;;;;;;6223887;23;20161;-85
2022/11/05 10:21:06;;;;;;;2.58;1.88;;;12.10;99.90;;;;;;6225802;23;20184;-84
2022/11/05 10:23:35;;;;;;;3.58;1.70;;;12.00;99.90;;;;;;6225103;23;20207;-85
2022/11/05 10:26:08;;;;;;;4.30;2.15;;;12.00;99.90;;;;;;6225937;23;20506;-89
2022/11/05 10:28:36;;;;;;;2.70;2.50;;;11.90;99.90;;;;;;6198525;23;20211;-85
2022/11/05 10:31:12;;;;;;;2.40;1.92;;;11.90;99.90;;;;;;6225417;23;20176;-84
2022/11/05 10:34:00;;;;;;;8.18;2.75;;;11.90;99.90;;;;;;6223236;23;20228;-84
2022/11/05 10:36:44;;;;;;;3.25;2.45;;;11.80;99.90;;;;;;6223689;23;20475;-84
2022/11/05 10:39:20;;;;;;;2.97;2.10;;;12.00;99.90;;;;;;6224416;23;20188;-88
2022/11/05 10:42:03;;;;;;;4.82;2.92;;;12.10;99.90;;;;;;6193731;23;20190;-88
2022/11/05 10:45:04;;;;;;;3.22;2.30;;;12.20;99.90;;;;;;6223999;23;20184;-85
2022/11/05 10:47:42;;;;;;;5.40;3.08;;;12.20;99.90;;;;;;6200747;23;20617;-86
2022/11/05 10:50:15;;;;;;;6.70;4.85;;;12.20;99.90;;;;;;6201281;23;20175;-86
2022/11/05 10:53:04;;;;;;;3.80;2.35;;;12.20;99.90;;;;;;6227155;23;20665;-85
2022/11/05 10:55:47;;;;;;;7.63;3.40;;;12.20;99.90;;;;;;6228963;23;20184;-88
2022/11/05 10:58:18;;;;;;;5.82;3.22;;;12.30;99.90;;;;;;6226567;23;20326;-86
2022/11/05 11:00:56;;;;;;;6.28;3.65;;;12.40;99.90;;;;;;6226560;23;20196;-85
2022/11/05 11:03:49;;;;;;;6.20;3.38;;;12.50;99.90;;;;;;6224426;23;20183;-89
2022/11/05 11:06:36;;;;;;;4.50;3.08;;;12.80;99.90;;;;;;6200027;23;20188;-83
2022/11/05 11:09:20;;;;;;;4.85;3.22;;;12.80;99.90;;;;;;6203207;23;20168;-90
2022/11/05 11:12:03;;;;;;;7.45;3.65;;;12.80;99.90;;;;;;6225359;23;20510;-87
2022/11/05 11:14:31;;;;;;;5.60;3.97;;;12.80;99.90;;;;;;6198119;23;20218;-84
2022/11/05 11:17:26;;;;;;;6.20;4.28;;;12.90;99.90;;;;;;6198973;23;20240;-84
2022/11/05 11:20:22;;;;;;;6.30;3.05;;;12.90;99.90;;;;;;6179442;23;20199;-83
2022/11/05 11:23:15;;;;;;;10.52;3.20;;;13.00;99.90;;;;;;6227924;23;20219;-85
2022/11/05 11:26:20;;;;;;;3.30;2.50;;;12.90;99.90;;;;;;6206350;23;20191;-90
2022/11/05 11:29:18;;;;;;;5.25;3.28;;;13.00;99.90;;;;;;6225576;23;20165;-85
2022/11/05 11:31:52;;;;;;;6.70;3.05;;;13.00;99.90;;;;;;6201055;23;20215;-87
2022/11/05 11:34:35;;;;;;;5.05;3.55;;;13.10;99.90;;;;;;6224908;23;20467;-87
2022/11/05 11:37:28;;;;;;;5.53;3.17;;;12.90;99.90;;;;;;6231392;23;20188;-81
2022/11/05 11:40:04;;;;;;;5.82;2.70;;;12.90;99.90;;;;;;6237376;23;20180;-84
2022/11/05 11:42:41;;;;;;;4.10;2.58;;;12.80;99.90;;;;;;6209565;23;20168;-85
2022/11/05 11:45:53;;;;;;;5.57;2.67;;;12.70;99.90;;;;;;6226627;23;20152;-83
2022/11/05 11:48:30;;;;;;;4.05;2.78;;;12.60;99.90;;;;;;6165673;23;20180;-87
2022/11/05 11:51:23;;;;;;;2.67;2.47;;;12.60;99.90;;;;;;6240768;23;20195;-87
2022/11/05 11:53:56;;;;;;;5.22;2.97;;;12.70;99.90;;;;;;6227355;23;20176;-84
2022/11/05 11:56:23;;;;;;;8.00;2.78;;;12.60;99.90;;;;;;6199136;23;20416;-82
2022/11/05 11:59:02;;;;;;;3.45;2.88;;;12.50;99.90;;;;;;6175951;23;20180;-85
2022/11/05 12:01:46;;;;;;;2.58;2.28;;;12.60;99.90;;;;;;6200991;23;20424;-85
2022/11/05 12:04:34;;;;;;;3.67;2.28;;;12.50;99.90;;;;;;6198245;23;20234;-85
2022/11/05 12:07:41;;;;;;;3.55;3.08;;;12.60;99.90;;;;;;6223057;23;20207;-89
2022/11/05 12:10:37;;;;;;;4.38;2.25;;;12.60;99.90;;;;;;6224507;23;20168;-84
2022/11/05 12:13:20;;;;;;;10.70;3.70;;;12.40;99.90;;;;;;6190931;23;20194;-83
2022/11/05 12:16:15;;;;;;;6.03;3.15;;;12.60;99.90;;;;;;6200557;23;20184;-89
2022/11/05 12:18:52;;;;;;;2.42;2.22;;;12.60;99.90;;;;;;6222885;23;20262;-86
2022/11/05 12:21:33;;;;;;;8.43;2.58;;;12.60;99.90;;;;;;6227872;23;20195;-85
2022/11/05 12:24:31;;;;;;;4.20;2.15;;;12.60;99.90;;;;;;6237419;23;20180;-85
2022/11/05 12:27:30;;;;;;;3.58;3.28;;;12.60;99.90;;;;;;6240691;23;20182;-86
2022/11/05 12:30:17;;;;;;;5.07;2.83;;;12.60;99.90;;;;;;6209538;23;20164;-87
2022/11/05 12:33:02;;;;;;;7.45;3.00;;;12.50;99.90;;;;;;6198010;23;20495;-82
2022/11/05 12:35:56;;;;;;;7.45;3.80;;;12.60;99.90;;;;;;6224070;23;20180;-88
2022/11/05 12:38:52;;;;;;;3.85;2.47;;;12.70;99.90;;;;;;6198390;23;20172;-87
2022/11/05 12:41:54;;;;;;;4.47;2.63;;;12.70;99.90;;;;;;6225209;23;20275;-86
2022/11/05 12:45:04;;;;;;;6.78;2.25;;;12.70;99.90;;;;;;6229178;23;20172;-88
2022/11/05 12:48:06;;;;;;;6.35;2.33;;;12.60;99.90;;;;;;6209119;23;20164;-83
2022/11/05 12:51:05;;;;;;;3.22;2.88;;;12.90;99.90;;;;;;6230658;23;20176;-87
2022/11/05 12:54:07;;;;;;;4.60;2.38;;;13.00;99.90;;;;;;6177924;23;21302;-86
2022/11/05 12:56:42;;;;;;;5.75;2.33;;;13.00;99.90;;;;;;6155634;23;20220;-88
2022/11/05 12:59:42;;;;;;;3.50;2.25;;;13.10;99.90;;;;;;6171031;23;20182;-85
2022/11/05 13:02:49;;;;;;;3.78;2.50;;;13.10;99.90;;;;;;6120920;23;20193;-84
2022/11/05 13:05:28;;;;;;;3.58;2.50;;;13.20;99.90;;;;;;6018875;23;20221;-83
2022/11/05 13:08:34;;;;;;;8.80;5.00;;;13.30;99.90;;;;;;6156833;23;20190;-84
2022/11/05 13:11:24;;;;;;;13.88;3.10;;;13.00;99.90;;;;;;6168197;23;20181;-89
2022/11/05 13:14:12;;;;;;;4.43;2.30;;;12.90;99.90;;;;;;6153603;23;20188;-85
2022/11/05 13:16:55;;;;;;;5.00;2.75;;;12.60;99.90;;;;;;6181211;23;20273;-85
2022/11/05 13:19:29;;;;;;;6.82;2.70;;;12.30;99.90;;;;;;6150537;23;20260;-91
2022/11/05 13:22:08;;;;;;;6.43;2.70;;;12.20;99.90;;;;;;6140037;23;20233;-86
2022/11/05 13:24:55;;;;;;;2.85;2.38;;;12.20;99.90;;;;;;6165053;23;20161;-82
2022/11/05 13:27:49;;;;;;;2.28;2.08;;;12.20;99.90;;;;;;6141302;23;20204;-87
2022/11/05 13:30:31;;;;;;;6.40;2.20;;;12.20;99.90;;;;;;6139534;23;20240;-84
2022/11/05 13:33:12;;;;;;;8.32;2.30;;;12.00;99.90;;;;;;6140076;23;20196;-86
2022/11/05 13:38:57;;;;;;;4.85;2.67;;;11.90;99.90;;;;;;6138084;23;20766;-89
2022/11/05 13:38:58;;;;;;;4.55;3.10;;;11.80;99.90;;;;;;6164789;23;20170;-82
2022/11/05 13:41:40;;;;;;;4.68;2.60;;;11.70;99.90;;;;;;6163484;23;20178;-85
2022/11/05 13:44:39;;;;;;;2.22;2.03;;;11.70;99.90;;;;;;6137825;23;20193;-81
2022/11/05 13:47:31;;;;;;;7.25;2.55;;;11.60;99.90;;;;;;6161844;23;20185;-83
2022/11/05 13:50:20;;;;;;;17.08;2.78;;;11.60;99.90;;;;;;6164362;23;20162;-85
2022/11/05 13:53:04;;;;;;;4.93;3.67;;;11.50;99.90;;;;;;6169476;23;20216;-83
2022/11/05 13:55:53;;;;;;;5.10;3.13;;;11.50;99.90;;;;;;6191446;23;20203;-81
2022/11/05 13:58:58;;;;;;;5.85;3.30;;;11.40;99.90;;;;;;6193126;23;20252;-81
2022/11/05 14:01:54;;;;;;;5.75;2.40;;;11.30;99.90;;;;;;6191009;23;20272;-85
2022/11/05 14:04:40;;;;;;;4.85;2.40;;;11.30;99.90;;;;;;6143821;23;20187;-87
2022/11/05 14:07:23;;;;;;;4.72;2.67;;;11.20;99.90;;;;;;6192032;23;20184;-84
2022/11/05 14:09:57;;;;;;;4.80;2.90;;;11.20;99.90;;;;;;6167017;23;20213;-88
2022/11/05 14:12:27;;;;;;;3.42;2.42;;;11.10;99.90;;;;;;6191576;23;20176;-83